Time;durP1;ratioP1;P1;durP2;ratioP2;P2;SDS_P1;SDS_P2;PMS_P1;PMS_P2;Temp;Humidity;BMP_temperature;BMP_pressure;BME280_temperature;BME280_humidity;BME280_pressure;Samples;Min_cycle;Max_cycle;Signal;HPM_P1;HPM_P2
2023/05/05 00:01:20;;;;;;;22.58;5.90;;;;;;;11.24;100.00;99718.91;5029776;28;20517;-43
2023/05/05 00:03:47;;;;;;;23.55;5.90;;;;;;;11.21;100.00;99710.56;5030198;28;20046;-43
2023/05/05 00:06:14;;;;;;;21.90;5.70;;;;;;;11.21;100.00;99707.78;5029803;28;20107;-42
2023/05/05 00:08:41;;;;;;;35.13;6.88;;;;;;;11.19;100.00;99699.84;5029994;28;20042;-43
2023/05/05 00:11:08;;;;;;;24.75;5.88;;;;;;;11.19;100.00;99694.31;5029909;28;20111;-42
2023/05/05 00:13:35;;;;;;;25.73;6.97;;;;;;;11.21;100.00;99686.41;5030130;28;20402;-43
2023/05/05 00:16:02;;;;;;;20.38;5.85;;;;;;;11.20;100.00;99679.28;5030013;28;20403;-43
2023/05/05 00:18:29;;;;;;;22.58;6.28;;;;;;;11.18;100.00;99670.53;5029675;28;20048;-43
2023/05/05 00:20:55;;;;;;;14.43;5.40;;;;;;;11.17;100.00;99674.50;5024503;28;20060;-42
2023/05/05 00:23:22;;;;;;;20.52;5.78;;;;;;;11.18;100.00;99676.09;5029999;28;20187;-42
2023/05/05 00:25:49;;;;;;;21.65;6.50;;;;;;;11.19;100.00;99669.38;5029789;28;20045;-42
2023/05/05 00:28:15;;;;;;;20.95;5.50;;;;;;;11.19;100.00;99655.53;5029953;28;20093;-43
2023/05/05 00:30:42;;;;;;;18.27;6.00;;;;;;;11.19;100.00;99658.31;5038421;28;20048;-42
2023/05/05 00:33:09;;;;;;;26.63;7.47;;;;;;;11.19;100.00;99652.75;5029527;28;20049;-42
2023/05/05 00:35:36;;;;;;;25.13;7.68;;;;;;;11.19;100.00;99650.00;5029733;28;20124;-42
2023/05/05 00:38:03;;;;;;;19.73;6.40;;;;;;;11.18;100.00;99659.47;5029595;28;20055;-42
2023/05/05 00:40:30;;;;;;;23.75;6.80;;;;;;;11.19;100.00;99655.53;5029684;28;20133;-42
2023/05/05 00:42:58;;;;;;;22.58;6.65;;;;;;;11.21;100.00;99653.19;5029315;28;20052;-43
2023/05/05 00:45:25;;;;;;;24.23;7.03;;;;;;;11.22;100.00;99643.69;5028879;28;20484;-42
2023/05/05 00:47:55;;;;;;;20.92;6.82;;;;;;;11.25;100.00;99648.47;5030261;28;20560;-43
2023/05/05 00:50:25;;;;;;;22.02;7.68;;;;;;;11.27;100.00;99634.25;5029349;28;20049;-43
2023/05/05 00:52:54;;;;;;;26.25;8.63;;;;;;;11.28;100.00;99647.72;5029327;28;20058;-43
2023/05/05 00:55:21;;;;;;;19.58;6.63;;;;;;;11.29;100.00;99642.97;5029345;28;20406;-42
2023/05/05 00:57:48;;;;;;;16.63;6.88;;;;;;;11.30;100.00;99633.50;5028912;28;20513;-42
2023/05/05 01:00:15;;;;;;;16.08;6.18;;;;;;;11.32;100.00;99637.50;5028768;28;20132;-44
2023/05/05 01:02:43;;;;;;;14.98;6.82;;;;;;;11.35;100.00;99639.50;5028735;28;20061;-43
2023/05/05 01:05:12;;;;;;;21.58;6.53;;;;;;;11.36;100.00;99640.28;5041643;28;20072;-43
2023/05/05 01:07:42;;;;;;;15.90;5.40;;;;;;;11.37;100.00;99634.38;5023202;28;20038;-43
2023/05/05 01:10:31;;;;;;;19.17;5.90;;;;;;;11.37;100.00;99634.38;5029161;28;20045;-44
2023/05/05 01:13:22;;;;;;;12.45;4.90;;;;;;;11.37;100.00;99634.38;5028773;28;20063;-46
2023/05/05 01:15:59;;;;;;;12.20;3.85;;;;;;;11.37;100.00;99641.88;5029076;28;20639;-45
2023/05/05 01:18:35;;;;;;;9.00;3.15;;;;;;;11.37;100.00;99642.69;5029242;28;20057;-46
2023/05/05 01:21:13;;;;;;;7.78;2.90;;;;;;;11.38;100.00;99641.53;5011496;28;20060;-44
2023/05/05 01:23:58;;;;;;;5.35;2.10;;;;;;;11.41;100.00;99651.06;5029186;28;20104;-43
2023/05/05 01:26:44;;;;;;;1.70;1.50;;;;;;;11.42;100.00;99653.44;5017431;28;20430;-42
2023/05/05 01:29:30;;;;;;;2.83;1.58;;;;;;;11.43;100.00;99643.97;5028950;28;20057;-44
2023/05/05 01:32:21;;;;;;;2.55;0.90;;;;;;;11.44;100.00;99653.06;5022492;28;20068;-43
2023/05/05 01:35:07;;;;;;;3.75;1.00;;;;;;;11.46;100.00;99654.28;5028996;28;20042;-50
2023/05/05 01:37:53;;;;;;;1.85;1.08;;;;;;;11.49;100.00;99655.53;5028985;28;20053;-43
2023/05/05 01:40:26;;;;;;;0.73;0.70;;;;;;;11.49;100.00;99652.75;5028831;28;20404;-49
2023/05/05 01:42:54;;;;;;;0.85;0.25;;;;;;;11.47;100.00;99658.66;5028400;28;20483;-43
2023/05/05 01:45:25;;;;;;;0.40;0.38;;;;;;;11.46;100.00;99659.03;5028954;28;20079;-46
2023/05/05 01:47:54;;;;;;;0.10;0.10;;;;;;;11.41;100.00;99657.38;5034704;28;20080;-44
2023/05/05 01:50:23;;;;;;;0.10;0.10;;;;;;;11.42;100.00;99660.97;5041590;28;20072;-43
2023/05/05 01:52:51;;;;;;;1.98;0.30;;;;;;;11.41;100.00;99674.00;5028727;28;20033;-43
2023/05/05 01:55:21;;;;;;;1.23;0.10;;;;;;;11.41;100.00;99685.09;5029046;28;20053;-43
2023/05/05 01:57:49;;;;;;;0.10;0.10;;;;;;;11.39;100.00;99681.09;5033129;28;20041;-43
2023/05/05 02:00:18;;;;;;;0.17;0.17;;;;;;;11.38;100.00;99680.34;5033043;28;20132;-44
2023/05/05 02:02:47;;;;;;;0.25;0.25;;;;;;;11.37;100.00;99678.72;5032407;28;20081;-44
2023/05/05 02:05:18;;;;;;;0.93;0.20;;;;;;;11.33;100.00;99683.41;5014972;28;20068;-47
2023/05/05 02:07:45;;;;;;;0.20;0.20;;;;;;;11.33;100.00;99683.41;5032651;28;20049;-42
2023/05/05 02:10:13;;;;;;;0.40;0.30;;;;;;;11.32;100.00;99681.81;5033175;28;20140;-43
2023/05/05 02:12:43;;;;;;;0.50;0.50;;;;;;;11.28;100.00;99686.50;5032955;28;20076;-44
2023/05/05 02:15:13;;;;;;;1.02;0.40;;;;;;;11.26;100.00;99688.06;5020334;28;20049;-43
2023/05/05 02:17:41;;;;;;;0.30;0.30;;;;;;;11.25;100.00;99698.34;5032338;28;20057;-45
2023/05/05 02:20:11;;;;;;;0.65;0.65;;;;;;;11.25;100.00;99694.78;5030120;28;20049;-43
2023/05/05 02:22:38;;;;;;;0.55;0.35;;;;;;;11.23;100.00;99694.34;5027463;28;20049;-43
2023/05/05 02:25:06;;;;;;;0.80;0.47;;;;;;;11.24;100.00;99705.06;5031879;28;20505;-42
2023/05/05 02:27:34;;;;;;;1.60;0.65;;;;;;;11.23;100.00;99705.44;5032323;28;20045;-43
2023/05/05 02:30:06;;;;;;;0.80;0.75;;;;;;;11.22;100.00;99706.63;5037729;28;20037;-43
2023/05/05 02:32:39;;;;;;;1.27;0.60;;;;;;;11.21;100.00;99710.56;5017724;28;20038;-43
2023/05/05 02:35:26;;;;;;;0.75;0.65;;;;;;;11.21;100.00;99708.59;5031619;28;20053;-43
2023/05/05 02:38:01;;;;;;;1.17;0.80;;;;;;;11.22;100.00;99720.47;5019089;28;20406;-45
2023/05/05 02:40:31;;;;;;;0.68;0.68;;;;;;;11.22;100.00;99715.72;5031489;28;20373;-43
2023/05/05 02:43:02;;;;;;;0.45;0.45;;;;;;;11.23;100.00;99719.28;5014116;28;20045;-43
2023/05/05 02:45:29;;;;;;;0.50;0.50;;;;;;;11.23;100.00;99725.63;5032202;28;20049;-43
2023/05/05 02:48:01;;;;;;;0.40;0.40;;;;;;;11.20;100.00;99728.38;5039501;28;20384;-45
2023/05/05 02:50:30;;;;;;;0.60;0.60;;;;;;;11.19;100.00;99733.09;5031885;28;20095;-44
2023/05/05 02:53:00;;;;;;;0.50;0.40;;;;;;;11.19;100.00;99729.53;5031416;28;20506;-43
2023/05/05 02:55:41;;;;;;;0.70;0.60;;;;;;;11.14;100.00;99736.19;5031245;28;20137;-43
2023/05/05 02:58:20;;;;;;;0.30;0.30;;;;;;;11.13;100.00;99739.31;5031614;28;20045;-43
2023/05/05 03:01:16;;;;;;;1.17;0.40;;;;;;;11.12;100.00;99735.75;5040618;22;20073;-43
2023/05/05 03:03:49;;;;;;;0.20;0.20;;;;;;;11.08;100.00;99746.00;5027060;28;20489;-43
2023/05/05 03:06:20;;;;;;;0.28;0.28;;;;;;;11.08;100.00;99742.41;5031342;28;20099;-46
2023/05/05 03:09:06;;;;;;;0.37;0.37;;;;;;;11.06;100.00;99748.34;5027113;28;20045;-44
2023/05/05 03:11:57;;;;;;;0.20;0.20;;;;;;;11.04;100.00;99750.66;5031207;28;20491;-43
2023/05/05 03:14:27;;;;;;;0.35;0.35;;;;;;;11.04;100.00;99742.34;5031442;28;20091;-51
2023/05/05 03:16:58;;;;;;;0.38;0.32;;;;;;;11.05;100.00;99757.81;5031106;28;20049;-45
2023/05/05 03:19:26;;;;;;;1.88;0.25;;;;;;;11.06;100.00;99740.03;5046634;28;20045;-44
2023/05/05 03:21:53;;;;;;;0.55;0.55;;;;;;;11.08;100.00;99743.22;5031496;28;20041;-43
2023/05/05 03:24:20;;;;;;;0.30;0.30;;;;;;;11.07;100.00;99741.59;5030716;28;20049;-44
2023/05/05 03:26:48;;;;;;;0.30;0.30;;;;;;;11.08;100.00;99746.00;5031394;28;20367;-43
2023/05/05 03:29:15;;;;;;;0.20;0.20;;;;;;;11.10;100.00;99746.41;5031371;28;20057;-43
2023/05/05 03:31:42;;;;;;;0.30;0.20;;;;;;;11.11;100.00;99759.09;5038605;28;20372;-43
2023/05/05 03:34:09;;;;;;;0.20;0.20;;;;;;;11.12;100.00;99759.91;5030730;28;20041;-43
2023/05/05 03:36:37;;;;;;;0.40;0.10;;;;;;;11.11;100.00;99764.63;5031027;28;20482;-43
2023/05/05 03:39:04;;;;;;;0.17;0.17;;;;;;;11.10;100.00;99765.78;5030640;28;20053;-43
2023/05/05 03:41:31;;;;;;;0.10;0.10;;;;;;;11.11;100.00;99759.09;5030461;28;20053;-44
2023/05/05 03:43:58;;;;;;;0.10;0.03;;;;;;;11.11;100.00;99764.63;5030704;28;20041;-43
2023/05/05 03:46:24;;;;;;;1.75;0.20;;;;;;;11.14;100.00;99769.44;5035715;28;20120;-44
2023/05/05 03:48:51;;;;;;;0.20;0.20;;;;;;;11.14;100.00;99763.91;5032166;28;20479;-43
2023/05/05 03:51:18;;;;;;;0.63;0.20;;;;;;;11.15;100.00;99764.66;5030307;28;20045;-46
2023/05/05 03:53:45;;;;;;;0.95;0.50;;;;;;;11.17;100.00;99767.88;5031196;28;20099;-43
2023/05/05 03:56:12;;;;;;;1.95;0.50;;;;;;;11.17;100.00;99754.84;5030474;28;20477;-45
2023/05/05 03:58:38;;;;;;;2.08;0.60;;;;;;;11.16;100.00;99761.53;5030355;28;20068;-43
2023/05/05 04:01:05;;;;;;;1.02;0.70;;;;;;;11.17;100.00;99762.34;5029944;28;20045;-43
2023/05/05 04:03:32;;;;;;;0.88;0.77;;;;;;;11.16;100.00;99756.00;5030027;28;20041;-43
2023/05/05 04:06:01;;;;;;;1.83;1.05;;;;;;;11.17;100.00;99763.16;5030148;28;20133;-43
2023/05/05 04:08:27;;;;;;;1.20;0.77;;;;;;;11.17;100.00;99756.81;5029609;28;20061;-43
2023/05/05 04:10:56;;;;;;;6.32;1.10;;;;;;;11.16;100.00;99756.00;5030857;28;20049;-43
2023/05/05 04:13:23;;;;;;;2.30;0.95;;;;;;;11.17;100.00;99765.94;5029623;28;20457;-44
2023/05/05 04:15:49;;;;;;;2.88;0.80;;;;;;;11.15;100.00;99759.13;5030303;28;20491;-43
2023/05/05 04:18:16;;;;;;;1.00;0.60;;;;;;;11.15;100.00;99759.94;5029410;28;20149;-43
2023/05/05 04:20:43;;;;;;;2.63;0.60;;;;;;;11.14;100.00;99760.31;5029492;28;20042;-43
2023/05/05 04:23:09;;;;;;;1.10;0.82;;;;;;;11.14;100.00;99763.91;5029943;28;20059;-45
2023/05/05 04:25:36;;;;;;;0.40;0.40;;;;;;;11.13;100.00;99756.75;5029700;28;20076;-43
2023/05/05 04:28:03;;;;;;;1.80;0.40;;;;;;;11.13;100.00;99767.03;5020672;28;20064;-49
2023/05/05 04:30:30;;;;;;;0.85;0.50;;;;;;;11.13;100.00;99773.38;5038399;28;20033;-44
2023/05/05 04:32:56;;;;;;;0.47;0.47;;;;;;;11.14;100.00;99765.88;5029740;28;20072;-43
2023/05/05 04:35:23;;;;;;;0.90;0.30;;;;;;;11.13;100.00;99762.28;5029800;28;20115;-43
2023/05/05 04:37:50;;;;;;;0.40;0.40;;;;;;;11.12;100.00;99771.75;5029568;28;20057;-44
2023/05/05 04:40:19;;;;;;;0.25;0.20;;;;;;;11.13;100.00;99781.69;5029315;28;20135;-44
2023/05/05 04:42:46;;;;;;;0.95;0.35;;;;;;;11.15;100.00;99775.75;5029580;28;20048;-43
2023/05/05 04:45:13;;;;;;;0.40;0.40;;;;;;;11.14;100.00;99782.47;5030031;28;20051;-49
2023/05/05 04:47:39;;;;;;;0.40;0.40;;;;;;;11.15;100.00;99787.63;5037030;28;20144;-49
2023/05/05 04:50:06;;;;;;;1.00;0.57;;;;;;;11.17;100.00;99796.41;5030223;28;20049;-45
2023/05/05 04:52:34;;;;;;;1.30;0.28;;;;;;;11.18;100.00;99803.53;5029863;28;20457;-44
2023/05/05 04:55:01;;;;;;;0.20;0.20;;;;;;;11.20;100.00;99794.84;5029577;28;20095;-48
2023/05/05 04:57:28;;;;;;;0.30;0.25;;;;;;;11.20;100.00;99797.63;5029544;28;20052;-44
2023/05/05 04:59:55;;;;;;;1.10;0.57;;;;;;;11.21;100.00;99804.75;5029451;28;20052;-44
2023/05/05 05:02:22;;;;;;;0.10;0.10;;;;;;;11.22;100.00;99809.94;5029453;28;20049;-43
2023/05/05 05:04:49;;;;;;;1.83;1.20;;;;;;;11.22;100.00;99809.94;5029151;28;20486;-43
2023/05/05 05:07:15;;;;;;;1.70;0.50;;;;;;;11.22;100.00;99812.72;5011198;28;20088;-43
2023/05/05 05:09:42;;;;;;;0.88;0.32;;;;;;;11.24;100.00;99824.22;5025652;28;20314;-44
2023/05/05 05:12:09;;;;;;;0.70;0.38;;;;;;;11.25;100.00;99819.47;5028892;28;20061;-45
2023/05/05 05:14:38;;;;;;;0.22;0.20;;;;;;;11.25;100.00;99823.00;5011790;28;20406;-43
2023/05/05 05:17:05;;;;;;;0.45;0.32;;;;;;;11.28;100.00;99827.81;5044370;28;20128;-44
2023/05/05 05:19:32;;;;;;;1.85;0.30;;;;;;;11.29;100.00;99829.44;5029534;28;20041;-43
2023/05/05 05:21:59;;;;;;;0.77;0.30;;;;;;;11.31;100.00;99832.63;5029090;28;20498;-46
2023/05/05 05:24:26;;;;;;;0.77;0.35;;;;;;;11.30;100.00;99828.28;5028614;28;20405;-43
2023/05/05 05:26:53;;;;;;;1.63;0.35;;;;;;;11.31;100.00;99843.69;5011264;28;20135;-43
2023/05/05 05:29:19;;;;;;;0.47;0.20;;;;;;;11.30;100.00;99838.53;5028828;28;20037;-51
2023/05/05 05:31:46;;;;;;;1.23;0.30;;;;;;;11.29;100.00;99843.28;5037266;28;20490;-43
2023/05/05 05:34:13;;;;;;;1.38;0.60;;;;;;;11.29;100.00;99848.03;4991175;28;20046;-43
2023/05/05 05:36:39;;;;;;;1.77;0.70;;;;;;;11.28;100.00;99849.22;5024470;28;20040;-43
2023/05/05 05:39:06;;;;;;;1.40;0.95;;;;;;;11.25;100.00;99858.25;5029041;28;20120;-43
2023/05/05 05:41:33;;;;;;;0.30;0.30;;;;;;;11.26;100.00;99854.31;5028701;28;20049;-45
2023/05/05 05:44:00;;;;;;;2.22;0.35;;;;;;;11.26;100.00;99855.09;5028744;28;20081;-43
2023/05/05 05:46:26;;;;;;;1.08;0.38;;;;;;;11.28;100.00;99857.53;5034102;28;20048;-43
2023/05/05 05:48:53;;;;;;;1.92;0.60;;;;;;;11.30;100.00;99857.94;5029574;28;20049;-44
2023/05/05 05:51:20;;;;;;;1.20;0.40;;;;;;;11.33;100.00;99866.28;5028513;28;20402;-47
2023/05/05 05:53:46;;;;;;;0.45;0.20;;;;;;;11.36;100.00;99861.97;5028800;28;20411;-43
2023/05/05 05:56:13;;;;;;;2.22;0.50;;;;;;;11.38;100.00;99866.00;5028499;28;20053;-43
2023/05/05 05:58:41;;;;;;;1.35;0.40;;;;;;;11.41;100.00;99867.22;5028483;28;20429;-43
2023/05/05 06:01:08;;;;;;;1.05;0.70;;;;;;;11.44;100.00;99867.28;5028276;28;20057;-47
2023/05/05 06:03:34;;;;;;;1.13;0.68;;;;;;;11.46;100.00;99878.78;5028391;28;20049;-43
2023/05/05 06:06:01;;;;;;;0.68;0.32;;;;;;;11.48;99.86;99879.22;5028184;28;20041;-44
2023/05/05 06:08:28;;;;;;;2.20;0.45;;;;;;;11.49;99.99;99880.81;5023905;28;20487;-43
2023/05/05 06:10:55;;;;;;;0.63;0.30;;;;;;;11.50;99.70;99885.19;5028848;28;20478;-43
2023/05/05 06:13:21;;;;;;;1.63;0.47;;;;;;;11.50;99.59;99890.72;5028329;28;20037;-45
2023/05/05 06:15:48;;;;;;;0.30;0.30;;;;;;;11.51;99.52;99889.56;5028327;28;20053;-43
2023/05/05 06:18:15;;;;;;;0.90;0.55;;;;;;;11.55;99.46;99895.97;5028404;28;20494;-43
2023/05/05 06:20:45;;;;;;;4.03;0.63;;;;;;;11.59;99.27;99891.28;5028363;28;20525;-43
2023/05/05 06:23:11;;;;;;;0.65;0.43;;;;;;;11.63;99.12;99896.88;5028523;28;20041;-44
2023/05/05 06:25:38;;;;;;;0.68;0.30;;;;;;;11.71;99.18;99903.34;5028379;28;20042;-44
2023/05/05 06:28:05;;;;;;;2.30;0.95;;;;;;;11.82;99.10;99904.31;5011286;28;20064;-48
2023/05/05 06:30:31;;;;;;;0.85;0.38;;;;;;;11.94;98.91;99906.88;5036849;28;20099;-44
2023/05/05 06:32:58;;;;;;;0.80;0.50;;;;;;;12.04;98.52;99911.78;5010319;28;20049;-44
2023/05/05 06:35:25;;;;;;;1.40;0.55;;;;;;;12.11;98.69;99912.66;5028415;28;20046;-44
2023/05/05 06:37:52;;;;;;;1.55;0.50;;;;;;;12.17;98.53;99910.38;5028457;28;20056;-48
2023/05/05 06:40:18;;;;;;;5.05;0.80;;;;;;;12.24;98.59;99913.22;5028074;28;20056;-46
2023/05/05 06:42:45;;;;;;;2.55;0.57;;;;;;;12.29;98.43;99912.09;5029960;28;20048;-51
2023/05/05 06:45:12;;;;;;;1.00;0.50;;;;;;;12.33;98.58;99922.09;5032247;28;20075;-48
2023/05/05 06:47:39;;;;;;;2.00;0.45;;;;;;;12.39;98.60;99926.09;5039308;28;20284;-54
2023/05/05 06:50:07;;;;;;;1.38;0.45;;;;;;;12.47;98.40;99921.47;5013563;28;20487;-48
2023/05/05 06:52:34;;;;;;;1.27;0.50;;;;;;;12.52;98.64;99933.00;5031569;28;20132;-47
2023/05/05 06:55:02;;;;;;;2.40;0.50;;;;;;;12.58;98.60;99934.28;5031421;28;20049;-47
2023/05/05 06:57:29;;;;;;;4.10;0.70;;;;;;;12.65;98.60;99928.84;5031763;28;20041;-48
2023/05/05 06:59:57;;;;;;;4.47;0.70;;;;;;;12.73;98.58;99932.50;5031913;28;20076;-44
2023/05/05 07:02:23;;;;;;;2.75;0.50;;;;;;;12.79;98.71;99942.88;5024984;28;20053;-44
2023/05/05 07:04:54;;;;;;;2.58;0.68;;;;;;;12.81;98.46;99950.84;5031159;28;20065;-47
2023/05/05 07:07:21;;;;;;;1.00;0.60;;;;;;;12.81;98.49;99951.63;5029971;28;20045;-45
2023/05/05 07:09:48;;;;;;;2.88;0.47;;;;;;;12.81;98.61;99962.72;5016754;28;20050;-45
2023/05/05 07:12:15;;;;;;;1.65;0.70;;;;;;;12.78;98.42;99957.97;5027711;28;20045;-47
2023/05/05 07:14:41;;;;;;;5.07;0.60;;;;;;;12.75;98.28;99961.50;5030780;28;20038;-45
2023/05/05 07:17:09;;;;;;;2.35;0.50;;;;;;;12.73;98.38;99960.28;5014769;28;20045;-46
2023/05/05 07:19:37;;;;;;;1.60;0.50;;;;;;;12.70;98.20;99956.28;5017390;28;20041;-45
2023/05/05 07:22:04;;;;;;;1.85;0.70;;;;;;;12.70;98.08;99966.56;5028104;28;20052;-45
2023/05/05 07:24:30;;;;;;;3.03;0.50;;;;;;;12.73;98.36;99954.72;5029948;28;20049;-45
2023/05/05 07:26:58;;;;;;;1.52;0.75;;;;;;;12.74;97.95;99968.22;5030628;28;20050;-45
2023/05/05 07:29:24;;;;;;;2.30;0.95;;;;;;;12.77;97.89;99961.09;5030726;28;20060;-44
2023/05/05 07:31:51;;;;;;;0.57;0.57;;;;;;;12.78;97.91;99969.06;5019458;28;20069;-45
2023/05/05 07:34:18;;;;;;;1.95;0.95;;;;;;;12.84;98.10;99972.28;5030784;28;20049;-45
2023/05/05 07:36:45;;;;;;;2.25;1.23;;;;;;;12.93;98.48;99974.78;5013004;28;20072;-45
2023/05/05 07:39:13;;;;;;;2.92;0.88;;;;;;;13.05;98.70;99982.88;5031089;28;20052;-44
2023/05/05 07:41:41;;;;;;;3.85;1.02;;;;;;;13.20;99.22;99979.06;5030536;28;20545;-45
2023/05/05 07:44:07;;;;;;;2.55;0.80;;;;;;;13.37;99.38;99992.34;5030625;28;20041;-45
2023/05/05 07:46:34;;;;;;;5.35;2.08;;;;;;;13.50;99.85;99979.78;5037667;28;20045;-45
2023/05/05 07:49:02;;;;;;;4.57;0.82;;;;;;;13.67;100.00;99984.69;5034190;28;20052;-48
2023/05/05 07:51:30;;;;;;;3.63;0.85;;;;;;;13.88;100.00;99993.22;5031411;28;20079;-44
2023/05/05 07:54:00;;;;;;;3.78;0.68;;;;;;;14.11;100.00;99995.00;5016604;28;20041;-44
2023/05/05 07:56:26;;;;;;;3.08;1.00;;;;;;;14.38;100.00;99999.16;5030533;28;20053;-44
2023/05/05 07:58:54;;;;;;;2.53;0.82;;;;;;;14.70;100.00;100011.28;5030582;28;20120;-44
2023/05/05 08:01:20;;;;;;;4.05;1.45;;;;;;;14.93;100.00;99997.84;5030193;28;20061;-46
2023/05/05 08:03:47;;;;;;;3.95;0.90;;;;;;;15.25;100.00;100009.88;5030360;28;20053;-44
2023/05/05 08:06:15;;;;;;;3.53;1.25;;;;;;;15.54;100.00;100013.56;5030384;28;20060;-45
2023/05/05 08:08:42;;;;;;;1.48;0.63;;;;;;;15.69;100.00;100019.97;5026515;28;20041;-45
2023/05/05 08:11:08;;;;;;;0.85;0.50;;;;;;;15.77;100.00;100024.38;5029988;28;20469;-44
2023/05/05 08:13:35;;;;;;;0.75;0.40;;;;;;;16.02;100.00;100019.59;5029754;28;20069;-50
2023/05/05 08:16:02;;;;;;;1.38;0.80;;;;;;;16.30;96.71;100018.78;5029585;28;20053;-45
2023/05/05 08:18:28;;;;;;;0.60;0.40;;;;;;;16.41;93.25;100022.34;5029897;28;20046;-45
2023/05/05 08:20:55;;;;;;;3.75;0.98;;;;;;;16.64;90.59;100022.72;5043219;28;20057;-44
2023/05/05 08:23:22;;;;;;;0.60;0.40;;;;;;;16.51;87.70;100029.91;5029953;28;20042;-44
2023/05/05 12:20:52;;;;;;;18.35;4.53;;;;;;;15.82;80.05;100063.84;4999899;28;1348003;-47
2023/05/05 12:23:39;;;;;;;19.25;4.78;;;;;;;15.82;81.02;100065.84;5049138;28;20394;-44
2023/05/05 12:26:30;;;;;;;14.40;3.75;;;;;;;15.87;81.53;100061.84;5073880;28;20056;-51
2023/05/05 12:29:25;;;;;;;13.95;3.92;;;;;;;15.96;81.51;100065.06;5102169;28;20765;-44
2023/05/05 12:32:38;;;;;;;28.08;4.03;;;;;;;16.01;81.57;100068.25;5077754;28;21712;-44
2023/05/05 12:35:26;;;;;;;18.15;4.18;;;;;;;16.22;81.87;100054.28;5086906;28;20067;-49
2023/05/05 12:38:15;;;;;;;13.25;3.25;;;;;;;16.50;82.11;100058.25;5064228;28;20049;-44
2023/05/05 12:41:01;;;;;;;12.18;3.75;;;;;;;16.76;81.58;100049.44;5087242;28;20357;-47
2023/05/05 12:43:54;;;;;;;22.33;6.43;;;;;;;16.87;81.08;100064.16;5085953;28;20055;-44
2023/05/05 12:46:47;;;;;;;18.67;6.30;;;;;;;17.16;80.86;100062.88;5084014;28;20424;-49
2023/05/05 12:49:50;;;;;;;35.75;12.63;;;;;;;17.30;80.34;100076.00;5097689;28;20389;-45
2023/05/05 12:52:42;;;;;;;29.25;7.75;;;;;;;17.38;80.12;100072.78;5065737;28;20052;-44
2023/05/05 12:55:36;;;;;;;24.83;8.30;;;;;;;17.47;79.28;100075.13;5089630;28;20051;-44
2023/05/05 12:58:23;;;;;;;20.55;5.03;;;;;;;17.68;79.27;100079.84;5104460;28;20405;-44
2023/05/05 13:01:10;;;;;;;24.30;5.22;;;;;;;17.91;78.59;100074.47;5103801;28;20047;-44
2023/05/05 13:04:10;;;;;;;22.40;6.30;;;;;;;18.19;78.36;100077.84;5090088;28;20134;-43
2023/05/05 13:07:09;;;;;;;17.17;3.75;;;;;;;18.52;77.52;100070.81;5089536;28;20043;-43
2023/05/05 13:10:10;;;;;;;21.63;5.22;;;;;;;18.72;77.18;100077.41;5063322;28;20056;-43
2023/05/05 13:12:57;;;;;;;17.65;4.03;;;;;;;18.91;76.37;100080.81;5079384;28;20574;-45
2023/05/05 13:15:45;;;;;;;12.80;3.17;;;;;;;18.75;75.08;100070.97;5093220;28;20052;-44
2023/05/05 13:18:45;;;;;;;17.48;5.25;;;;;;;18.49;75.47;100068.81;5085843;28;20144;-44
2023/05/05 13:21:33;;;;;;;15.38;4.30;;;;;;;18.43;75.53;100064.84;5092151;28;20055;-44
2023/05/05 13:24:20;;;;;;;15.88;5.18;;;;;;;18.21;75.07;100069.06;5079226;28;20044;-44
2023/05/05 13:27:20;;;;;;;10.95;3.30;;;;;;;17.95;75.82;100072.47;5090453;28;20052;-47
2023/05/05 13:30:08;;;;;;;26.80;4.03;;;;;;;17.70;75.94;100064.22;5076550;28;20528;-45
2023/05/05 13:32:55;;;;;;;11.73;4.03;;;;;;;17.50;76.15;100069.50;5078383;28;20641;-46
2023/05/05 13:35:42;;;;;;;17.92;4.97;;;;;;;17.48;76.23;100071.13;5077483;28;20048;-44
2023/05/05 13:38:31;;;;;;;16.48;4.65;;;;;;;17.40;76.10;100072.34;5075905;28;20041;-44
2023/05/05 13:41:18;;;;;;;19.15;4.88;;;;;;;17.60;76.07;100073.50;5067198;28;20194;-43
2023/05/05 13:44:05;;;;;;;18.77;3.67;;;;;;;17.97;75.20;100070.03;5082687;28;20044;-43
2023/05/05 13:46:52;;;;;;;20.02;3.63;;;;;;;17.99;75.00;100070.41;5063888;28;20053;-43
2023/05/05 13:49:39;;;;;;;20.08;3.40;;;;;;;17.87;74.54;100079.31;5069014;28;20055;-44
2023/05/05 13:52:26;;;;;;;27.65;4.47;;;;;;;17.58;74.82;100071.09;5072785;28;20056;-49
2023/05/05 13:55:16;;;;;;;15.07;2.80;;;;;;;17.43;75.24;100069.53;5058654;28;20512;-43
2023/05/05 13:58:03;;;;;;;16.23;3.05;;;;;;;17.81;75.40;100061.34;5066074;28;20076;-44
2023/05/05 14:00:51;;;;;;;10.75;2.70;;;;;;;17.86;74.46;100055.31;5070837;28;20044;-43
2023/05/05 14:03:38;;;;;;;13.27;2.88;;;;;;;17.82;74.50;100068.56;5069416;28;20533;-48
2023/05/05 14:06:26;;;;;;;13.75;2.78;;;;;;;17.84;74.20;100064.13;5069983;28;20053;-43
2023/05/05 14:09:13;;;;;;;14.88;2.75;;;;;;;17.62;73.89;100051.47;5068252;28;20651;-47
2023/05/05 14:12:01;;;;;;;15.75;3.97;;;;;;;17.49;74.24;100053.94;5073482;28;20060;-42
2023/05/05 14:14:48;;;;;;;16.05;2.83;;;;;;;17.51;73.83;100054.31;5073114;28;20062;-43
2023/05/05 14:17:35;;;;;;;19.00;3.92;;;;;;;17.54;74.10;100058.31;5059965;28;20060;-43
2023/05/05 14:20:22;;;;;;;20.90;3.55;;;;;;;17.37;74.04;100054.38;5073159;28;20135;-42
2023/05/05 14:23:09;;;;;;;13.27;2.67;;;;;;;17.15;74.19;100052.91;5071002;28;20047;-42
2023/05/05 14:25:56;;;;;;;21.70;4.68;;;;;;;16.94;74.48;100061.38;5068313;28;20390;-44
2023/05/05 14:28:44;;;;;;;18.15;3.25;;;;;;;16.87;74.66;100061.38;5055650;28;20493;-43
2023/05/05 14:31:35;;;;;;;19.52;4.00;;;;;;;16.89;74.89;100059.00;5077093;28;20048;-42
2023/05/05 14:34:22;;;;;;;21.42;5.18;;;;;;;16.94;75.16;100058.59;5068832;28;20040;-48
2023/05/05 14:37:09;;;;;;;25.17;4.13;;;;;;;16.96;75.05;100051.38;5057025;28;20056;-44
2023/05/05 14:39:57;;;;;;;13.32;4.15;;;;;;;16.97;75.31;100044.56;5078248;28;20400;-43
2023/05/05 14:42:44;;;;;;;19.92;3.97;;;;;;;16.94;75.37;100044.59;5065184;28;20040;-45
2023/05/05 14:45:31;;;;;;;22.20;3.97;;;;;;;16.96;75.62;100042.19;5066258;28;20056;-42
2023/05/05 14:48:21;;;;;;;17.35;3.97;;;;;;;16.85;75.29;100047.00;5049972;28;20059;-46
2023/05/05 14:51:08;;;;;;;25.85;4.88;;;;;;;16.68;75.49;100039.50;5068042;28;20049;-45
2023/05/05 14:53:55;;;;;;;19.73;4.95;;;;;;;16.62;75.49;100041.09;5062945;28;20513;-45
2023/05/05 14:56:42;;;;;;;21.77;4.13;;;;;;;16.60;75.78;100037.91;5057289;28;20055;-43
2023/05/05 14:59:29;;;;;;;13.82;3.67;;;;;;;16.59;75.69;100044.69;5074009;28;20583;-43
2023/05/05 15:02:16;;;;;;;19.67;4.53;;;;;;;16.57;75.80;100045.09;5061661;28;20060;-44
2023/05/05 15:05:04;;;;;;;21.02;3.90;;;;;;;16.49;76.00;100049.09;5058881;28;20048;-43
2023/05/05 15:07:51;;;;;;;41.60;7.10;;;;;;;16.50;75.85;100044.25;5062769;28;20067;-44
2023/05/05 15:10:38;;;;;;;24.73;5.95;;;;;;;16.41;76.30;100039.13;5068530;28;20056;-45
2023/05/05 15:13:26;;;;;;;24.42;4.45;;;;;;;16.43;76.84;100042.28;5057386;28;20044;-42
2023/05/05 15:16:13;;;;;;;17.50;3.72;;;;;;;16.56;76.80;100039.91;5080638;28;20406;-44
2023/05/05 15:19:00;;;;;;;21.80;5.22;;;;;;;16.65;76.66;100040.28;5068027;28;20155;-46
2023/05/05 15:21:52;;;;;;;16.75;3.65;;;;;;;16.74;76.63;100037.84;5057328;28;20040;-43
2023/05/05 15:24:40;;;;;;;18.70;4.45;;;;;;;16.85;76.67;100045.03;5066417;28;20051;-43
2023/05/05 15:27:28;;;;;;;17.95;3.40;;;;;;;16.96;76.60;100036.59;5066428;28;20742;-43
2023/05/05 15:30:16;;;;;;;19.42;3.20;;;;;;;17.08;76.36;100041.72;5069334;28;20048;-45
2023/05/05 15:33:03;;;;;;;20.10;3.38;;;;;;;17.49;75.99;100037.13;5055268;28;20486;-45
2023/05/05 15:35:50;;;;;;;14.63;3.70;;;;;;;17.61;75.25;100031.09;5064978;28;20045;-43
2023/05/05 15:38:43;;;;;;;14.38;3.70;;;;;;;17.56;75.14;100031.53;5076242;28;20055;-43
2023/05/05 15:41:33;;;;;;;11.15;2.33;;;;;;;17.55;75.23;100026.34;5066734;28;20052;-43
2023/05/05 15:44:20;;;;;;;13.13;2.67;;;;;;;17.57;75.09;100038.72;5067023;28;20045;-43
2023/05/05 15:47:07;;;;;;;14.43;3.38;;;;;;;17.57;74.85;100029.53;5068607;28;20053;-44
2023/05/05 15:49:54;;;;;;;15.52;2.83;;;;;;;17.63;74.90;100037.06;5065839;28;20044;-43
2023/05/05 15:52:41;;;;;;;13.52;4.05;;;;;;;17.59;74.63;100033.50;5061974;28;20055;-46